Time;durP1;ratioP1;P1;durP2;ratioP2;P2;SDS_P1;SDS_P2;PMS_P1;PMS_P2;Temp;Humidity;BMP_temperature;BMP_pressure;BME280_temperature;BME280_humidity;BME280_pressure;Samples;Min_cycle;Max_cycle;Signal;HPM_P1;HPM_P2
2022/08/26 00:01:54;;;;;;;22.85;16.85;;;22.40;99.90;;;;;;5069706;28;20203;-82
2022/08/26 00:04:23;;;;;;;26.23;16.48;;;22.40;99.90;;;;;;5082404;28;20235;-84
2022/08/26 00:06:52;;;;;;;23.13;17.30;;;22.40;99.90;;;;;;5069060;28;20767;-83
2022/08/26 00:09:19;;;;;;;20.58;15.77;;;22.50;99.90;;;;;;5078140;28;20314;-83
2022/08/26 00:11:46;;;;;;;25.73;15.60;;;22.40;99.90;;;;;;5072511;28;20690;-83
2022/08/26 00:14:15;;;;;;;21.98;15.85;;;22.40;99.90;;;;;;5091976;28;20208;-82
2022/08/26 00:16:42;;;;;;;27.13;16.08;;;22.40;99.90;;;;;;5069188;28;20208;-82
2022/08/26 00:19:15;;;;;;;25.80;16.73;;;22.30;99.90;;;;;;5076895;28;20220;-82
2022/08/26 00:21:43;;;;;;;23.95;16.30;;;22.30;99.90;;;;;;5069895;28;20739;-82
2022/08/26 00:24:12;;;;;;;26.92;16.80;;;22.30;99.90;;;;;;5067052;28;20262;-82
2022/08/26 00:26:39;;;;;;;22.20;15.82;;;22.20;99.90;;;;;;5090519;28;20234;-82
2022/08/26 00:29:07;;;;;;;22.73;16.17;;;22.20;99.90;;;;;;5089013;28;20215;-83
2022/08/26 00:31:35;;;;;;;27.15;16.15;;;22.20;99.90;;;;;;5086175;28;20241;-81
2022/08/26 00:34:03;;;;;;;20.23;15.45;;;22.20;99.90;;;;;;5086074;28;20226;-82
2022/08/26 00:36:31;;;;;;;22.33;15.27;;;22.20;99.90;;;;;;5092577;28;20218;-83
2022/08/26 00:38:58;;;;;;;22.90;16.65;;;22.20;99.90;;;;;;5083604;28;20232;-83
2022/08/26 00:41:30;;;;;;;23.27;15.77;;;22.20;99.90;;;;;;5082927;28;20208;-83
2022/08/26 00:43:57;;;;;;;23.38;16.25;;;22.20;99.90;;;;;;5070040;28;20212;-82
2022/08/26 00:46:34;;;;;;;23.30;16.10;;;22.20;99.90;;;;;;5087327;28;20207;-80
2022/08/26 00:49:21;;;;;;;28.75;17.23;;;22.20;99.90;;;;;;5069693;28;20220;-85
2022/08/26 00:52:02;;;;;;;26.73;15.77;;;22.20;99.90;;;;;;5090590;28;20214;-82
2022/08/26 00:54:37;;;;;;;22.27;14.80;;;22.20;99.90;;;;;;5074132;28;20262;-82
2022/08/26 00:57:12;;;;;;;22.73;13.65;;;22.30;99.90;;;;;;5072611;28;20265;-82
2022/08/26 00:59:47;;;;;;;25.17;15.13;;;22.30;99.90;;;;;;5083619;28;20541;-83
2022/08/26 01:02:15;;;;;;;18.38;13.52;;;22.30;99.90;;;;;;5090692;28;20221;-84
2022/08/26 01:04:52;;;;;;;19.23;13.85;;;22.30;99.90;;;;;;5087375;28;20228;-83
2022/08/26 01:07:27;;;;;;;19.40;13.95;;;22.30;99.90;;;;;;5094711;28;20556;-82
2022/08/26 01:10:00;;;;;;;23.00;15.77;;;22.20;99.90;;;;;;5081038;28;20302;-82
2022/08/26 01:12:31;;;;;;;28.17;16.67;;;22.20;99.90;;;;;;5072405;28;20648;-83
2022/08/26 01:15:02;;;;;;;25.95;16.67;;;22.20;99.90;;;;;;5073808;28;20248;-83
2022/08/26 01:17:31;;;;;;;25.13;16.20;;;22.10;99.90;;;;;;5087614;28;20196;-84
2022/08/26 01:20:11;;;;;;;24.00;14.48;;;22.10;99.90;;;;;;5075601;28;20217;-83
2022/08/26 01:22:59;;;;;;;22.35;14.57;;;22.10;99.90;;;;;;5091820;28;20287;-84
2022/08/26 01:25:32;;;;;;;23.05;14.90;;;22.10;99.90;;;;;;5071829;28;20294;-83
2022/08/26 01:28:04;;;;;;;21.77;14.15;;;22.00;99.90;;;;;;5082808;28;20224;-81
2022/08/26 01:30:32;;;;;;;24.80;14.70;;;22.00;99.90;;;;;;5085609;28;20232;-83
2022/08/26 01:33:03;;;;;;;20.65;14.20;;;22.00;99.90;;;;;;5085858;28;20246;-83
2022/08/26 01:35:30;;;;;;;20.42;13.75;;;22.00;99.90;;;;;;5086399;28;20291;-83
2022/08/26 01:37:59;;;;;;;19.10;13.98;;;22.00;99.90;;;;;;5091722;28;20208;-80
2022/08/26 01:40:32;;;;;;;19.35;13.20;;;22.00;99.90;;;;;;5078736;28;20208;-82
2022/08/26 01:43:00;;;;;;;18.88;13.95;;;21.90;99.90;;;;;;5077623;28;20211;-82
2022/08/26 01:45:31;;;;;;;22.02;14.13;;;21.90;99.90;;;;;;5091036;28;20204;-83
2022/08/26 01:48:06;;;;;;;16.95;12.82;;;21.80;99.90;;;;;;5087924;28;20200;-82
2022/08/26 01:50:37;;;;;;;19.90;12.27;;;21.70;99.90;;;;;;5093779;28;20227;-83
2022/08/26 01:53:07;;;;;;;18.63;12.40;;;21.70;99.90;;;;;;5091079;28;20273;-81
2022/08/26 01:55:40;;;;;;;18.02;12.73;;;21.60;99.90;;;;;;5076034;28;20196;-80
2022/08/26 01:58:12;;;;;;;17.55;11.93;;;21.60;99.90;;;;;;5091681;28;20195;-84
2022/08/26 02:00:40;;;;;;;20.73;12.65;;;21.60;99.90;;;;;;5072814;28;20271;-82
2022/08/26 02:03:16;;;;;;;26.42;12.48;;;21.60;99.90;;;;;;5096247;28;20208;-82
2022/08/26 02:05:59;;;;;;;21.17;11.27;;;21.60;99.90;;;;;;5077435;28;20200;-82
2022/08/26 02:08:42;;;;;;;24.42;11.55;;;21.60;99.90;;;;;;5076104;28;20231;-83
2022/08/26 02:11:10;;;;;;;14.27;11.25;;;21.50;99.90;;;;;;5076176;28;20267;-84
2022/08/26 02:13:42;;;;;;;15.05;9.48;;;21.50;99.90;;;;;;5094330;28;20715;-83
2022/08/26 02:16:11;;;;;;;14.20;10.02;;;21.50;99.90;;;;;;5070463;28;20272;-82
2022/08/26 02:18:40;;;;;;;18.15;9.70;;;21.40;99.90;;;;;;5077618;28;20239;-82
2022/08/26 02:21:10;;;;;;;20.15;8.73;;;21.40;99.90;;;;;;5088506;28;20703;-82
2022/08/26 02:23:38;;;;;;;14.85;8.20;;;21.40;99.90;;;;;;5076248;28;20249;-82
2022/08/26 02:26:10;;;;;;;10.52;7.55;;;21.40;99.90;;;;;;5089904;28;20200;-82
2022/08/26 02:28:57;;;;;;;13.15;7.75;;;21.30;99.90;;;;;;5099253;28;20195;-86
2022/08/26 02:31:24;;;;;;;16.85;7.65;;;21.30;99.90;;;;;;5086397;28;20310;-82
2022/08/26 02:33:51;;;;;;;14.40;6.95;;;21.20;99.90;;;;;;5084149;28;20277;-82
2022/08/26 02:36:23;;;;;;;13.23;6.75;;;21.20;99.90;;;;;;5087516;28;20233;-81
2022/08/26 02:38:54;;;;;;;12.40;7.13;;;21.20;99.90;;;;;;5086382;28;20237;-84
2022/08/26 02:41:21;;;;;;;10.32;6.20;;;21.20;99.90;;;;;;5100727;28;20326;-82
2022/08/26 02:43:49;;;;;;;15.48;5.72;;;21.30;99.90;;;;;;5078428;28;20584;-83
2022/08/26 02:46:16;;;;;;;11.77;5.82;;;21.20;99.90;;;;;;5088986;28;20253;-80
2022/08/26 02:48:55;;;;;;;12.20;6.18;;;21.20;99.90;;;;;;5092492;28;20216;-82
2022/08/26 02:51:23;;;;;;;13.25;5.90;;;21.20;99.90;;;;;;5077032;28;20263;-82
2022/08/26 02:53:50;;;;;;;9.73;5.32;;;21.20;99.90;;;;;;5086613;28;20204;-83
2022/08/26 02:56:17;;;;;;;8.88;5.13;;;21.20;99.90;;;;;;5094825;28;20668;-81
2022/08/26 02:58:44;;;;;;;12.30;5.13;;;21.20;99.90;;;;;;5071999;28;20216;-80
2022/08/26 03:01:20;;;;;;;11.68;5.05;;;21.20;99.90;;;;;;5089855;28;20283;-80
2022/08/26 03:03:48;;;;;;;10.93;5.07;;;21.30;99.90;;;;;;5089320;28;20621;-83
2022/08/26 03:06:16;;;;;;;11.10;4.80;;;21.30;99.90;;;;;;5091940;28;20613;-82
2022/08/26 03:08:43;;;;;;;9.70;4.97;;;21.20;99.90;;;;;;5064657;28;20668;-82
2022/08/26 03:11:10;;;;;;;12.27;5.22;;;21.30;99.90;;;;;;5062496;28;20281;-82
2022/08/26 03:13:38;;;;;;;10.57;4.70;;;21.30;99.90;;;;;;5082472;28;20215;-84
2022/08/26 03:16:06;;;;;;;8.98;4.35;;;21.20;99.90;;;;;;5081382;28;20232;-84
2022/08/26 03:18:33;;;;;;;8.35;4.18;;;21.30;99.90;;;;;;5068134;28;20310;-83
2022/08/26 03:21:09;;;;;;;9.55;4.55;;;21.30;99.90;;;;;;5079756;28;20676;-84
2022/08/26 03:23:42;;;;;;;9.90;4.10;;;21.30;99.90;;;;;;5084480;28;20246;-83
2022/08/26 03:26:11;;;;;;;13.15;4.32;;;21.20;99.90;;;;;;5081593;28;20231;-83
2022/08/26 03:30:38;;;;;;;9.63;3.78;;;21.30;99.90;;;;;;5080194;28;20645;-84
2022/08/26 03:31:25;;;;;;;5.55;3.88;;;21.30;99.90;;;;;;5084239;28;20254;-82
2022/08/26 03:33:53;;;;;;;10.55;3.50;;;21.30;99.90;;;;;;5067142;28;20228;-82
2022/08/26 03:36:26;;;;;;;7.15;3.95;;;21.30;99.90;;;;;;5084091;28;20208;-82
2022/08/26 03:38:53;;;;;;;8.50;3.92;;;21.20;99.90;;;;;;5075558;28;20209;-84
2022/08/26 03:41:20;;;;;;;11.70;3.28;;;21.20;99.90;;;;;;5083872;28;20298;-82
2022/08/26 03:43:49;;;;;;;11.85;3.97;;;21.20;99.90;;;;;;5076127;28;20204;-83
2022/08/26 03:46:17;;;;;;;12.18;3.83;;;21.20;99.90;;;;;;5085183;28;20695;-83
2022/08/26 03:48:44;;;;;;;5.57;3.40;;;21.20;99.90;;;;;;5079856;28;20744;-83
2022/08/26 03:51:17;;;;;;;9.38;3.60;;;21.10;99.90;;;;;;5080005;28;20235;-83
2022/08/26 03:53:46;;;;;;;6.53;3.00;;;21.10;99.90;;;;;;5075015;28;20213;-82
2022/08/26 03:56:14;;;;;;;7.13;3.63;;;21.10;99.90;;;;;;5085291;28;20207;-81
2022/08/26 03:58:40;;;;;;;9.52;2.70;;;21.20;99.90;;;;;;5082232;28;20200;-84
2022/08/26 04:01:10;;;;;;;10.18;3.78;;;21.10;99.90;;;;;;5065064;28;20208;-83
2022/08/26 04:06:37;;;;;;;10.73;2.88;;;21.00;99.90;;;;;;5076750;28;20212;-82
2022/08/26 04:09:12;;;;;;;8.32;2.53;;;21.00;99.90;;;;;;5063603;28;20208;-86
2022/08/26 04:11:43;;;;;;;9.25;3.15;;;21.00;99.90;;;;;;5084604;28;20211;-84
2022/08/26 04:14:13;;;;;;;5.85;2.45;;;21.00;99.90;;;;;;5078778;28;20212;-83
2022/08/26 04:16:47;;;;;;;7.35;3.03;;;21.00;99.90;;;;;;5081222;28;20262;-84
2022/08/26 04:19:15;;;;;;;8.07;2.58;;;21.00;99.90;;;;;;5080578;28;20211;-84
2022/08/26 04:21:43;;;;;;;10.45;2.75;;;21.00;99.90;;;;;;5077268;28;20707;-83
2022/08/26 04:24:12;;;;;;;5.07;2.20;;;21.10;99.90;;;;;;5081597;28;20323;-83
2022/08/26 04:26:39;;;;;;;9.52;2.53;;;21.10;99.90;;;;;;5062082;28;20268;-83
2022/08/26 04:29:16;;;;;;;7.75;2.50;;;21.10;99.90;;;;;;5072486;28;20223;-83
2022/08/26 04:31:44;;;;;;;5.78;2.40;;;21.10;99.90;;;;;;5063296;28;20242;-84
2022/08/26 04:34:12;;;;;;;8.38;3.10;;;21.10;99.90;;;;;;5061932;28;20220;-83
2022/08/26 04:36:41;;;;;;;10.55;2.70;;;21.20;99.90;;;;;;5065394;28;20295;-83
2022/08/26 04:39:11;;;;;;;11.30;2.63;;;21.20;99.90;;;;;;5086000;28;20215;-85
2022/08/26 04:41:39;;;;;;;6.05;2.45;;;21.20;99.90;;;;;;5079085;28;20257;-83
2022/08/26 04:44:06;;;;;;;9.20;3.05;;;21.20;99.90;;;;;;5063969;28;21037;-83
2022/08/26 04:46:34;;;;;;;9.32;2.45;;;21.20;99.90;;;;;;5069027;28;20386;-84
2022/08/26 04:49:07;;;;;;;6.35;2.72;;;21.30;99.90;;;;;;5066998;28;20241;-84
2022/08/26 04:51:35;;;;;;;7.35;2.38;;;21.50;99.90;;;;;;5067835;28;20219;-85
2022/08/26 04:54:05;;;;;;;7.55;2.15;;;21.40;99.90;;;;;;5070252;28;20279;-83
2022/08/26 04:56:38;;;;;;;8.65;2.80;;;21.40;99.90;;;;;;5068668;28;20231;-84
2022/08/26 04:59:08;;;;;;;5.18;2.28;;;21.40;99.90;;;;;;5060147;28;20215;-82
2022/08/26 05:01:47;;;;;;;9.10;2.17;;;21.40;99.90;;;;;;5086594;28;20227;-82
2022/08/26 05:04:16;;;;;;;6.88;2.40;;;21.40;99.90;;;;;;5068709;28;20608;-84
2022/08/26 05:06:45;;;;;;;6.97;2.35;;;21.40;99.90;;;;;;5066018;28;20357;-83
2022/08/26 05:09:13;;;;;;;7.05;2.13;;;21.60;99.90;;;;;;5068566;28;20319;-82
2022/08/26 05:11:41;;;;;;;5.25;2.33;;;21.50;99.90;;;;;;5071182;28;20234;-83
2022/08/26 05:14:08;;;;;;;6.60;2.15;;;21.50;99.90;;;;;;5091447;28;20200;-82
2022/08/26 05:16:36;;;;;;;10.90;2.35;;;21.50;99.90;;;;;;5067207;28;20671;-81
2022/08/26 05:19:06;;;;;;;6.68;2.13;;;21.50;99.90;;;;;;5090863;28;20697;-82
2022/08/26 05:21:35;;;;;;;5.63;2.25;;;21.60;99.90;;;;;;5073876;28;20635;-84
2022/08/26 05:24:03;;;;;;;5.97;2.22;;;21.60;99.90;;;;;;5090020;28;20224;-84
2022/08/26 05:26:31;;;;;;;10.40;2.20;;;21.60;99.90;;;;;;5059707;28;20318;-83
2022/08/26 05:29:00;;;;;;;6.47;2.05;;;21.60;99.90;;;;;;5046733;28;20252;-85
2022/08/26 05:31:30;;;;;;;5.63;2.40;;;21.60;99.90;;;;;;5048820;28;20225;-81
2022/08/26 05:33:59;;;;;;;4.25;2.10;;;21.60;99.90;;;;;;5049461;28;20278;-81
2022/08/26 05:36:32;;;;;;;8.38;2.05;;;21.60;99.90;;;;;;5050931;28;20286;-82
2022/08/26 05:39:02;;;;;;;5.18;1.92;;;21.60;99.90;;;;;;5046814;28;20632;-83
2022/08/26 05:41:33;;;;;;;6.00;2.15;;;21.60;99.90;;;;;;5051222;28;20205;-85
2022/08/26 05:44:08;;;;;;;6.68;1.92;;;21.60;99.90;;;;;;5047385;28;20225;-83
2022/08/26 05:46:36;;;;;;;10.50;2.17;;;21.70;99.90;;;;;;5049907;28;20209;-82
2022/08/26 05:49:04;;;;;;;7.93;2.00;;;21.70;99.90;;;;;;5047512;28;20209;-81
2022/08/26 05:51:32;;;;;;;8.23;2.00;;;21.70;99.90;;;;;;5045497;28;20270;-85
2022/08/26 05:54:02;;;;;;;6.43;2.22;;;21.70;99.90;;;;;;5049642;28;20205;-85
2022/08/26 05:56:29;;;;;;;8.50;2.03;;;21.80;99.90;;;;;;5039192;28;20579;-84
2022/08/26 05:58:56;;;;;;;5.80;1.52;;;21.80;99.90;;;;;;5047113;28;20260;-82
2022/08/26 06:01:26;;;;;;;5.40;1.65;;;21.80;99.90;;;;;;5039037;28;20237;-81
2022/08/26 06:03:58;;;;;;;8.80;1.60;;;21.80;99.90;;;;;;5045005;28;20255;-82
2022/08/26 06:06:30;;;;;;;5.93;1.83;;;21.90;99.90;;;;;;5049330;28;20329;-83
2022/08/26 06:09:00;;;;;;;5.32;1.80;;;21.90;99.90;;;;;;5042512;28;20224;-84
2022/08/26 06:11:29;;;;;;;11.55;2.10;;;21.90;99.90;;;;;;5043352;28;20562;-85
2022/08/26 06:13:58;;;;;;;8.00;1.83;;;21.90;99.90;;;;;;5044226;28;20208;-83
2022/08/26 06:16:32;;;;;;;8.35;2.00;;;21.90;99.90;;;;;;5060685;28;20393;-82
2022/08/26 06:19:01;;;;;;;8.30;2.20;;;22.00;99.90;;;;;;5050233;28;20221;-83
2022/08/26 06:21:33;;;;;;;8.07;2.22;;;22.10;99.90;;;;;;5041656;28;20683;-83
2022/08/26 06:26:59;;;;;;;5.90;1.70;;;22.00;99.90;;;;;;5058307;28;20319;-83
2022/08/26 06:29:29;;;;;;;9.48;2.20;;;22.00;99.90;;;;;;5061463;28;20560;-83
2022/08/26 06:31:56;;;;;;;6.93;2.20;;;22.10;99.90;;;;;;5060890;28;20231;-83
2022/08/26 06:34:27;;;;;;;5.72;2.20;;;22.20;99.90;;;;;;5063365;28;20316;-81
2022/08/26 06:36:58;;;;;;;5.45;1.83;;;22.20;99.90;;;;;;5086507;28;20637;-80
2022/08/26 06:39:28;;;;;;;7.80;2.30;;;22.20;99.90;;;;;;5069360;28;20570;-83
2022/08/26 06:41:57;;;;;;;9.55;2.05;;;22.20;99.90;;;;;;5087410;28;20218;-83
2022/08/26 06:44:25;;;;;;;7.88;2.10;;;22.30;99.90;;;;;;5088490;28;20200;-81
2022/08/26 06:46:53;;;;;;;7.78;2.10;;;22.20;99.90;;;;;;5078538;28;20212;-83
2022/08/26 06:49:20;;;;;;;8.38;1.95;;;22.30;99.90;;;;;;5073811;28;20223;-82
2022/08/26 06:51:59;;;;;;;6.57;1.85;;;22.30;99.90;;;;;;5087727;28;20234;-81
2022/08/26 06:54:30;;;;;;;8.93;2.08;;;22.30;99.90;;;;;;5070835;28;20200;-81
2022/08/26 06:56:58;;;;;;;8.07;2.17;;;22.30;99.90;;;;;;5085609;28;20526;-82
2022/08/26 06:59:25;;;;;;;6.78;2.10;;;22.20;99.90;;;;;;5065566;28;20200;-82
2022/08/26 07:01:53;;;;;;;6.18;1.77;;;22.20;99.90;;;;;;5081739;28;20700;-83
2022/08/26 07:04:21;;;;;;;6.55;1.80;;;22.20;99.90;;;;;;5075356;28;20221;-84
2022/08/26 07:06:52;;;;;;;8.05;1.90;;;22.20;99.90;;;;;;5082450;28;20208;-84
2022/08/26 07:09:24;;;;;;;6.05;2.00;;;22.40;99.90;;;;;;5083419;28;20223;-84
2022/08/26 07:11:52;;;;;;;3.58;1.40;;;22.30;99.90;;;;;;5080359;28;20638;-84
2022/08/26 07:14:19;;;;;;;4.65;1.95;;;22.40;99.90;;;;;;5079804;28;20680;-82
2022/08/26 07:16:48;;;;;;;6.30;1.95;;;22.50;99.90;;;;;;5082657;28;20204;-83
2022/08/26 07:19:17;;;;;;;5.35;1.85;;;22.60;99.90;;;;;;5088391;28;20214;-82
2022/08/26 07:21:56;;;;;;;5.15;1.98;;;22.70;99.90;;;;;;5063189;28;20540;-83
2022/08/26 07:24:23;;;;;;;6.78;1.83;;;22.80;99.90;;;;;;5063681;28;21421;-82
2022/08/26 07:26:58;;;;;;;11.10;1.52;;;22.90;99.90;;;;;;5088744;28;20744;-83
2022/08/26 07:29:24;;;;;;;5.75;2.05;;;23.00;99.90;;;;;;5067450;28;20209;-83
2022/08/26 07:31:52;;;;;;;5.20;1.60;;;23.10;99.90;;;;;;5067702;28;20670;-84
2022/08/26 07:34:22;;;;;;;9.88;1.90;;;23.20;99.90;;;;;;5059506;28;20224;-84
2022/08/26 07:36:50;;;;;;;4.38;1.77;;;23.20;99.90;;;;;;5064194;28;20690;-82
2022/08/26 07:39:18;;;;;;;5.55;1.60;;;23.20;99.90;;;;;;5074663;28;20249;-84
2022/08/26 07:41:46;;;;;;;5.53;1.35;;;23.20;99.90;;;;;;5061139;28;20219;-83
2022/08/26 07:44:14;;;;;;;5.10;1.52;;;23.10;99.90;;;;;;5074115;28;20243;-83
2022/08/26 07:46:42;;;;;;;6.38;1.63;;;23.20;99.90;;;;;;5057900;28;20247;-82
2022/08/26 07:49:10;;;;;;;5.43;1.52;;;23.30;99.90;;;;;;5070651;28;20216;-83
2022/08/26 07:51:39;;;;;;;6.43;1.88;;;23.20;99.90;;;;;;5063911;28;20215;-84
2022/08/26 07:54:06;;;;;;;4.85;1.25;;;23.40;99.90;;;;;;5072862;28;20219;-83
2022/08/26 07:56:33;;;;;;;7.32;2.08;;;23.50;99.90;;;;;;5063844;28;20254;-82
2022/08/26 07:59:03;;;;;;;7.90;1.73;;;23.40;99.90;;;;;;5068438;28;20230;-83
2022/08/26 08:01:41;;;;;;;4.60;1.33;;;23.50;99.90;;;;;;5065920;28;20230;-82
2022/08/26 08:04:13;;;;;;;4.68;1.50;;;23.50;99.90;;;;;;5063153;28;20263;-82
2022/08/26 08:06:40;;;;;;;4.28;1.65;;;23.60;99.90;;;;;;5067357;28;20652;-83
2022/08/26 08:09:10;;;;;;;7.18;1.85;;;23.70;99.90;;;;;;5067740;28;20204;-81
2022/08/26 08:11:38;;;;;;;4.03;1.27;;;23.70;99.90;;;;;;5088447;28;20228;-84
2022/08/26 08:14:05;;;;;;;6.45;1.63;;;23.80;99.90;;;;;;5067448;28;20196;-84
2022/08/26 08:16:38;;;;;;;4.75;1.73;;;23.90;99.90;;;;;;5066094;28;20215;-84
2022/08/26 08:19:12;;;;;;;5.20;1.40;;;24.00;99.90;;;;;;5091432;28;20222;-82
2022/08/26 08:21:40;;;;;;;8.52;1.80;;;24.30;99.90;;;;;;5087535;28;20233;-83
2022/08/26 08:24:09;;;;;;;3.72;1.48;;;24.50;99.90;;;;;;5083713;28;21078;-82
2022/08/26 08:26:37;;;;;;;5.45;1.45;;;24.60;99.90;;;;;;5079588;28;20271;-82
2022/08/26 08:29:06;;;;;;;3.88;1.55;;;24.50;99.90;;;;;;5088864;28;20208;-82
2022/08/26 08:31:34;;;;;;;5.30;1.25;;;24.50;99.90;;;;;;5078537;28;20303;-83
2022/08/26 08:34:24;;;;;;;6.10;1.50;;;24.40;99.90;;;;;;5084640;28;20595;-82
2022/08/26 08:36:52;;;;;;;3.47;1.27;;;24.30;99.90;;;;;;5064849;28;20235;-82
2022/08/26 08:39:20;;;;;;;4.35;1.42;;;24.10;99.90;;;;;;5076730;28;20215;-83
2022/08/26 08:42:12;;;;;;;4.50;1.60;;;24.00;99.90;;;;;;5059602;28;20589;-84
2022/08/26 08:44:44;;;;;;;4.35;1.55;;;23.90;99.90;;;;;;5081720;28;20223;-82
2022/08/26 08:47:29;;;;;;;3.92;1.42;;;23.80;99.90;;;;;;5082312;28;20208;-83
2022/08/26 08:50:05;;;;;;;6.40;1.58;;;23.80;99.90;;;;;;5085852;28;20211;-82
2022/08/26 08:52:34;;;;;;;4.80;1.55;;;23.70;99.90;;;;;;5078093;28;20273;-83
2022/08/26 08:55:04;;;;;;;4.40;1.40;;;23.70;99.90;;;;;;5087061;28;20237;-84
2022/08/26 08:58:00;;;;;;;4.05;1.42;;;23.60;99.90;;;;;;5091383;28;20345;-84
2022/08/26 09:00:42;;;;;;;3.80;1.42;;;23.70;99.90;;;;;;5090910;28;20242;-83
2022/08/26 09:03:58;;;;;;;5.35;1.50;;;23.60;99.90;;;;;;5082861;28;20218;-81
2022/08/26 09:06:27;;;;;;;5.88;1.48;;;23.70;99.90;;;;;;5073569;28;20261;-84
2022/08/26 09:08:55;;;;;;;5.68;1.67;;;23.70;99.90;;;;;;5068063;28;20201;-84
2022/08/26 09:11:22;;;;;;;7.30;1.70;;;23.70;99.90;;;;;;5068472;28;20212;-84
2022/08/26 09:13:54;;;;;;;3.55;1.50;;;23.60;99.90;;;;;;5059049;28;20246;-83
2022/08/26 09:16:39;;;;;;;5.05;1.70;;;23.70;99.90;;;;;;5078779;28;20417;-84
2022/08/26 09:19:29;;;;;;;6.20;1.75;;;23.50;99.90;;;;;;5070206;28;20623;-84
2022/08/26 09:21:58;;;;;;;5.85;1.50;;;23.50;99.90;;;;;;5064208;28;20683;-82
2022/08/26 09:24:28;;;;;;;7.00;1.55;;;23.50;99.90;;;;;;5072516;28;20266;-83
2022/08/26 09:26:57;;;;;;;6.32;2.13;;;23.60;99.90;;;;;;5068031;28;20522;-83
2022/08/26 09:29:35;;;;;;;7.22;1.80;;;23.60;99.90;;;;;;5068164;28;20204;-89
2022/08/26 09:32:18;;;;;;;8.00;1.67;;;23.50;99.90;;;;;;5077300;28;20239;-86
2022/08/26 09:35:08;;;;;;;7.53;1.42;;;23.70;99.90;;;;;;5075416;28;20219;-86
2022/08/26 09:37:39;;;;;;;6.32;1.80;;;23.70;99.90;;;;;;5075156;28;20214;-86
2022/08/26 09:40:33;;;;;;;8.90;1.88;;;23.80;99.90;;;;;;5095229;28;20219;-87
2022/08/26 09:43:18;;;;;;;8.10;2.20;;;23.90;99.90;;;;;;5067007;28;20247;-87
2022/08/26 09:45:55;;;;;;;9.82;2.15;;;23.90;99.90;;;;;;5078371;28;20283;-86
2022/08/26 09:48:25;;;;;;;6.55;1.80;;;24.00;99.90;;;;;;5078160;28;20223;-86
2022/08/26 09:50:58;;;;;;;7.65;1.88;;;24.00;99.90;;;;;;5066853;28;20200;-84
2022/08/26 09:53:31;;;;;;;6.00;1.70;;;24.00;99.90;;;;;;5057864;28;20239;-84
2022/08/26 09:56:10;;;;;;;6.80;1.70;;;24.00;99.90;;;;;;5058614;28;20288;-86
2022/08/26 09:58:41;;;;;;;7.93;1.83;;;23.90;99.90;;;;;;5074761;28;20211;-84
2022/08/26 10:01:23;;;;;;;6.60;1.80;;;23.80;99.90;;;;;;5081207;28;20743;-85
2022/08/26 10:03:51;;;;;;;8.13;1.65;;;23.80;99.90;;;;;;5078914;28;20529;-88
2022/08/26 10:06:18;;;;;;;9.07;2.20;;;23.70;99.90;;;;;;5080158;28;20212;-85
2022/08/26 10:08:57;;;;;;;7.10;1.60;;;23.70;99.90;;;;;;5069045;28;20640;-84
2022/08/26 10:11:59;;;;;;;6.75;1.45;;;23.60;99.90;;;;;;5067391;28;20668;-83
2022/08/26 10:14:35;;;;;;;8.23;1.60;;;23.50;99.90;;;;;;5067575;28;20266;-86
2022/08/26 10:17:15;;;;;;;10.40;1.88;;;23.50;99.90;;;;;;5067153;28;20284;-85
2022/08/26 10:19:53;;;;;;;7.10;1.85;;;23.60;99.90;;;;;;5066153;28;20341;-85
2022/08/26 10:22:46;;;;;;;6.93;1.80;;;23.70;99.90;;;;;;5077527;28;20203;-84
2022/08/26 10:25:17;;;;;;;5.85;2.00;;;23.70;99.90;;;;;;5050730;28;20258;-83
2022/08/26 10:28:02;;;;;;;2.92;1.40;;;23.80;99.90;;;;;;5058145;28;20255;-83
2022/08/26 10:30:50;;;;;;;5.35;1.55;;;24.00;99.90;;;;;;5062763;28;20208;-83
2022/08/26 10:33:17;;;;;;;4.85;1.90;;;24.20;99.90;;;;;;5060094;28;20504;-83
2022/08/26 10:35:57;;;;;;;6.53;1.38;;;24.30;99.90;;;;;;5060405;28;20225;-85
2022/08/26 10:38:38;;;;;;;5.88;1.42;;;24.30;99.90;;;;;;5069001;28;20241;-82
2022/08/26 10:41:08;;;;;;;7.03;1.67;;;24.40;99.90;;;;;;5071584;28;20214;-83
2022/08/26 10:43:43;;;;;;;5.75;1.67;;;24.40;99.90;;;;;;5074391;28;20240;-84
2022/08/26 10:46:18;;;;;;;5.85;1.52;;;24.40;99.90;;;;;;5068190;28;20212;-81
2022/08/26 10:49:03;;;;;;;4.68;1.35;;;24.30;99.90;;;;;;5091068;28;20224;-82
2022/08/26 10:51:40;;;;;;;5.78;1.63;;;24.40;99.90;;;;;;5087017;28;20195;-82
2022/08/26 10:54:30;;;;;;;4.38;1.50;;;24.50;99.90;;;;;;5072844;28;20236;-82
2022/08/26 10:57:13;;;;;;;4.78;1.73;;;24.60;99.90;;;;;;5071675;28;20199;-82
2022/08/26 11:03:40;;;;;;;5.55;1.42;;;24.70;99.90;;;;;;5081214;28;20218;-83
2022/08/26 11:06:30;;;;;;;4.70;1.30;;;24.70;99.90;;;;;;5083934;28;20212;-80
2022/08/26 11:09:02;;;;;;;4.72;2.10;;;24.50;99.90;;;;;;5079417;28;20212;-82
2022/08/26 11:11:38;;;;;;;5.15;1.70;;;24.40;99.90;;;;;;5078010;28;20234;-83
2022/08/26 11:14:20;;;;;;;3.45;1.20;;;24.40;99.90;;;;;;5063303;28;20251;-82
2022/08/26 11:16:57;;;;;;;6.45;1.23;;;24.30;99.90;;;;;;5067433;28;20208;-82
2022/08/26 11:19:40;;;;;;;6.68;1.55;;;24.20;99.90;;;;;;5066010;28;20219;-84
2022/08/26 11:22:34;;;;;;;4.13;1.30;;;24.20;99.90;;;;;;5068929;28;20559;-83
2022/08/26 11:25:08;;;;;;;5.63;1.25;;;24.10;99.90;;;;;;5073468;28;20207;-85
2022/08/26 11:27:37;;;;;;;3.80;1.25;;;24.10;99.90;;;;;;5067412;28;20251;-84
2022/08/26 11:30:04;;;;;;;4.45;1.13;;;24.00;99.90;;;;;;5062833;28;20238;-83
2022/08/26 11:32:40;;;;;;;4.00;1.23;;;24.00;99.90;;;;;;5080690;28;20231;-82
2022/08/26 11:35:07;;;;;;;6.85;1.30;;;24.00;99.90;;;;;;5079516;28;20589;-82
2022/08/26 11:37:41;;;;;;;3.72;1.02;;;24.00;99.90;;;;;;5083557;28;20245;-82
2022/08/26 11:40:13;;;;;;;3.20;1.20;;;24.10;99.90;;;;;;5069438;28;20211;-82
2022/08/26 11:42:56;;;;;;;4.30;1.33;;;24.20;99.90;;;;;;5087066;28;20204;-83
2022/08/26 11:45:47;;;;;;;2.85;0.90;;;24.40;99.90;;;;;;5085422;28;20628;-82
2022/08/26 11:48:29;;;;;;;5.35;1.35;;;24.50;99.90;;;;;;5064305;28;20224;-83
2022/08/26 11:50:57;;;;;;;4.03;1.20;;;24.50;99.90;;;;;;5085741;28;20268;-82
2022/08/26 11:53:26;;;;;;;3.35;1.10;;;24.50;99.90;;;;;;5089814;28;20566;-82
2022/08/26 11:55:58;;;;;;;5.22;1.10;;;24.70;99.90;;;;;;5071398;28;20295;-84
2022/08/26 11:58:27;;;;;;;4.40;1.20;;;24.70;99.90;;;;;;5067114;28;20215;-83
2022/08/26 12:00:59;;;;;;;3.25;1.40;;;24.90;99.90;;;;;;5081896;28;20213;-83
2022/08/26 12:03:45;;;;;;;4.22;1.00;;;24.90;99.90;;;;;;5068109;28;20220;-83
2022/08/26 12:06:25;;;;;;;2.40;1.08;;;25.10;99.90;;;;;;5082064;28;20542;-82
2022/08/26 12:08:59;;;;;;;4.97;1.20;;;25.10;99.90;;;;;;5080020;28;20644;-83
2022/08/26 12:11:32;;;;;;;4.80;0.90;;;25.10;99.90;;;;;;5084671;28;20204;-83
2022/08/26 12:14:05;;;;;;;4.10;1.10;;;25.00;99.90;;;;;;5078305;28;20227;-86
2022/08/26 12:16:38;;;;;;;4.85;1.45;;;25.00;99.90;;;;;;5076726;28;20227;-86
2022/08/26 12:19:21;;;;;;;3.95;1.30;;;24.80;99.90;;;;;;5069200;28;20238;-86
2022/08/26 12:21:55;;;;;;;1.73;1.10;;;24.70;99.90;;;;;;5063967;28;20283;-86
2022/08/26 12:24:25;;;;;;;3.55;0.98;;;24.70;99.90;;;;;;5064714;28;20234;-84
2022/08/26 12:27:10;;;;;;;3.40;1.38;;;24.60;99.90;;;;;;5079156;28;20305;-86
2022/08/26 12:29:39;;;;;;;4.57;1.40;;;24.50;99.90;;;;;;5074624;28;20208;-84
2022/08/26 12:32:16;;;;;;;5.35;1.55;;;24.40;99.90;;;;;;5074752;28;20663;-85
2022/08/26 12:34:47;;;;;;;3.70;1.13;;;24.30;99.90;;;;;;5064167;28;20222;-87
2022/08/26 12:37:15;;;;;;;6.40;1.33;;;24.10;99.90;;;;;;5061195;28;20207;-85
2022/08/26 12:39:44;;;;;;;5.22;1.30;;;24.10;99.90;;;;;;5063025;28;20199;-85
2022/08/26 12:42:11;;;;;;;4.93;1.33;;;24.00;99.90;;;;;;5065343;28;20283;-84
2022/08/26 12:44:43;;;;;;;2.97;1.17;;;24.00;99.90;;;;;;5093768;28;20200;-83
2022/08/26 12:47:33;;;;;;;4.93;1.77;;;24.00;99.90;;;;;;5086437;28;20864;-83
2022/08/26 12:50:24;;;;;;;3.10;1.17;;;24.00;99.90;;;;;;5084020;28;20215;-82
2022/08/26 12:53:01;;;;;;;2.30;1.10;;;23.90;99.90;;;;;;5082928;28;20344;-85
2022/08/26 12:55:31;;;;;;;5.63;2.05;;;23.80;99.90;;;;;;5081973;28;20287;-84
2022/08/26 12:58:22;;;;;;;1.90;1.10;;;23.70;99.90;;;;;;5079157;28;20727;-86
2022/08/26 13:00:57;;;;;;;4.50;1.40;;;23.80;99.90;;;;;;5059417;28;20283;-82
2022/08/26 13:03:32;;;;;;;2.47;1.00;;;23.80;99.90;;;;;;5079372;28;20300;-86
2022/08/26 13:06:21;;;;;;;4.55;1.42;;;23.90;99.90;;;;;;5083591;28;20290;-83
2022/08/26 13:08:59;;;;;;;3.42;1.30;;;24.00;99.90;;;;;;5082613;28;20296;-86
2022/08/26 13:11:31;;;;;;;5.78;1.30;;;24.00;99.90;;;;;;5088927;28;20234;-85
2022/08/26 13:14:04;;;;;;;5.20;1.50;;;24.00;99.90;;;;;;5079000;28;20256;-84
2022/08/26 13:16:34;;;;;;;4.63;1.30;;;24.00;99.90;;;;;;5069570;28;20195;-87
2022/08/26 13:19:04;;;;;;;5.03;1.45;;;24.00;99.90;;;;;;5080826;28;20223;-87
2022/08/26 13:21:52;;;;;;;3.67;1.30;;;23.90;99.90;;;;;;5079622;28;20222;-84